Rome, OR

8:19 PM MDT on March 22, 2017 (GMT -0600)
Rome State | | Change Station
Active Advisory: Flood Warning

Elev 4052 ft 42.58 °N, 117.89 °W | Updated 27 minutes ago

Mostly Cloudy
Mostly Cloudy
50 °F
Feels Like 50 °F
N
10
Wind Variable Wind from NW

Today
High -- | Low -- °F
--% Chance of Precip.
Yesterday
High -- | Low -- °F
Precip. -- in
Pressure 29.89 in
Visibility -9999.0 miles
Clouds
Dew Point 33 °F
Humidity 52%
Rainfall 0.00 in
Snow Depth Not available.
7:50 AM 8:06 PM
Waning Crescent, 27% visible
METAR KREO 230152Z AUTO 32009KT 10/01 A2987 RMK AO1 WSHFT 0132 SLP120 T01000006
Pressure 29.89 in
Visibility -9999.0 miles
Clouds
Dew Point 33 °F
Humidity 52%
Rainfall 0.00 in
Snow Depth Not available.
7:50 AM 8:06 PM
Waning Crescent, 27% visible
METAR KREO 230152Z AUTO 32009KT 10/01 A2987 RMK AO1 WSHFT 0132 SLP120 T01000006

Get Your Daily Forecast Email!

Thanks for signing up!

Be on the lookout for a verification email in your inbox.

You'll start receiving severe weather alerts in your inbox..

×

10-Day Weather Forecast

Almanac

Astronomy

Mar. 22, 2017 Rise Set
Actual Time
Civil Twilight
Nautical Twilight
Astronomical Twilight
Moon
Length of Visible Light
Length of Day
Tomorrow will be .
, % of the Moon is Illuminated

Today's Extremes

State Highs State Lows

Community

WunderPhotos

Upload Photos

1,962,540 photos uploaded!

WunderBlog® & News

Nearby

Air Quality

  Air Quality AQ Index Pollutant
Not available.

Snow Depth

Station Depth Elevation

Earthquake Activity

City Distance Mag. Time & Date
Minimum magnitude displayed is 2.5.

Earthquake Activity

City Distance Mag. Time & Date
Minimum magnitude displayed is 2.5.

Coastal Water Temperatures

Place Temperature

Stations

Nearby Weather Stations

Station Location Temp. Windchill Dew Point Humidity Wind Precip. Elev Updated Type
                   

Watches & Warnings

Flood Warning
Issued: 2:48 PM MDT Mar. 22, 2017 – National Weather Service

The Flood Warning continues for
the Snake River near Weiser.
* Until late Sunday night... or until the warning is cancelled.
* At 2:00 PM Wednesday the stage was 12.4 feet.
* Minor flooding is occurring and minor flooding is forecast.
* Flood stage is 12.0 feet.
* Forecast... the river will continue rising to near 12.4 feet by
after midnight tomorrow. The river will fall below flood stage
Sunday before midnight.
* Impact... at 12.0 feet... flooding of agricultural land near the river
is likely in Malheur County, Oregon and in Washington County,
Idaho. Mortimer Road in Weiser will be flooded.


Lat... Lon 4431 11703 4417 11686 4405 11688 4406 11705
      4427 11714